Skip Navigation Links Skip Navigation Links

Current Weather

Cherry Capital, Traverse City, Mich.

For information only: do not use for flight planning or navigation.
Latest weather
Observation time Sunday, May 26, 2019 10:53 AM EDT
Local time Sunday, May 26, 2019 11:34 AM EDT
Flight conditions Visual Meteorological Conditions
Winds
Wind direction North-Northeast (20°)
Wind speed 5 mph
Visibility 10 mi.
Sky condition
Ceiling 18,000 ft. broken clouds
Cloud layer few clouds 9,000 ft.
Cloud layer broken clouds 18,000 ft.
Temperature 59°F
Dewpoint 48°F
Altimeter 30.06 in.Hg
Pressure change last 3 hours-0.03 in.Hg
Pressure rising more slowly
Derived measurements
Relative humidity 67%
Density altitude 628 ft.
Sea-level pressure 30.06 in.Hg
Remarks
System requires maintenance.
Automated weather observing station with precipitation discriminator.
METAR KTVC 261453Z 02004KT 10SM FEW090 BKN180 15/09 A3006 RMK AO2 SLP180 T01500089 51010 $

Settings

Location code

InnerDrive.Weather 4.0.6770.0 Release CLR 4.0.30319.42000
Copyright ©2018 Inner Drive Technology. All rights reserved. Portions Copyright ©1986-2018 David Braverman.

Find weather

Site navigation


Skip Navigation Links

Place info

Page info

PayPal - The safer, easier way to pay online!

Return home.

Copyright ©2019 Inner Drive Technology. Purveyors of fine, hand-crafted computer software. Page printed 2019-05-26T15:34:45 UTC.